Time;durP1;ratioP1;P1;durP2;ratioP2;P2;SDS_P1;SDS_P2;PMS_P1;PMS_P2;Temp;Humidity;BMP_temperature;BMP_pressure;BME280_temperature;BME280_humidity;BME280_pressure;Samples;Min_cycle;Max_cycle;Signal;HPM_P1;HPM_P2
2022/06/18 00:00:03;;;;;;;;;;;;;;;20.44;42.94;97435.75;30001;982;1878;-61
2022/06/18 00:00:36;;;;;;;;;;;;;;;20.44;42.98;97441.25;30001;983;1864;-60
2022/06/18 00:01:09;;;;;;;;;;;;;;;20.44;42.60;97444.00;30001;983;1868;-59
2022/06/18 00:01:40;;;;;;;;;;;;;;;20.43;42.94;97442.41;30001;983;1877;-60
2022/06/18 00:02:12;;;;;;;;;;;;;;;20.44;43.02;97441.25;30001;983;1877;-56
2022/06/18 00:02:43;;;;;;;;;;;;;;;20.44;43.35;97444.00;30001;983;1864;-61
2022/06/18 00:03:14;;;;;;;;;;;;;;;20.42;43.41;97443.56;30001;983;1868;-60
2022/06/18 00:03:46;;;;;;;;;;;;;;;20.40;43.57;97446.66;30001;987;1877;-55
2022/06/18 00:04:19;;;;;;;;;;;;;;;20.38;43.58;97443.44;30001;983;1877;-60
2022/06/18 00:04:50;;;;;;;;;;;;;;;20.37;43.48;97441.00;30001;983;1877;-60
2022/06/18 00:05:23;;;;;;;;;;;;;;;20.38;44.02;97439.87;30001;983;1877;-60
2022/06/18 00:05:55;;;;;;;;;;;;;;;20.36;43.67;97444.88;30001;982;1877;-61
2022/06/18 00:06:27;;;;;;;;;;;;;;;20.35;43.75;97443.28;30001;982;1864;-59
2022/06/18 00:07:00;;;;;;;;;;;;;;;20.33;43.60;97445.56;30001;982;1869;-60
2022/06/18 00:07:32;;;;;;;;;;;;;;;20.31;43.84;97442.34;30001;982;1864;-59
2022/06/18 00:08:07;;;;;;;;;;;;;;;20.30;43.90;97438.00;30001;983;1868;-60
2022/06/18 00:08:38;;;;;;;;;;;;;;;20.32;43.98;97446.72;30001;983;1877;-61
2022/06/18 00:09:10;;;;;;;;;;;;;;;20.32;44.01;97438.44;30001;983;1877;-60
2022/06/18 00:09:43;;;;;;;;;;;;;;;20.28;43.95;97448.53;30001;983;1877;-60
2022/06/18 00:10:16;;;;;;;;;;;;;;;20.28;44.15;97446.59;30001;983;1864;-59
2022/06/18 00:10:51;;;;;;;;;;;;;;;20.26;44.19;97445.31;30001;983;1868;-61
2022/06/18 00:13:41;;;;;;;;;;;;;;;20.22;44.88;97447.97;30001;982;1878;-61
2022/06/18 00:14:12;;;;;;;;;;;;;;;20.18;44.44;97454.50;30001;982;1860;-59
2022/06/18 00:14:43;;;;;;;;;;;;;;;20.15;44.57;97447.72;30001;982;1869;-61
2022/06/18 00:15:25;;;;;;;;;;;;;;;20.17;44.34;97441.84;30001;982;1878;-59
2022/06/18 00:15:58;;;;;;;;;;;;;;;20.14;44.89;97448.06;30001;983;1877;-56
2022/06/18 00:16:31;;;;;;;;;;;;;;;20.14;44.79;97445.28;30001;983;1864;-60
2022/06/18 00:17:08;;;;;;;;;;;;;;;20.12;44.59;97450.34;30001;983;1868;-61
2022/06/18 00:17:39;;;;;;;;;;;;;;;20.08;44.32;97451.03;30001;983;1877;-60
2022/06/18 00:18:12;;;;;;;;;;;;;;;20.08;44.99;97448.28;30001;983;1877;-57
2022/06/18 00:18:43;;;;;;;;;;;;;;;20.06;44.48;97442.31;30001;983;1877;-59
2022/06/18 00:19:17;;;;;;;;;;;;;;;20.03;44.60;97445.75;30001;983;1877;-60
2022/06/18 00:19:49;;;;;;;;;;;;;;;20.03;44.66;97439.44;30001;983;1877;-60
2022/06/18 00:20:21;;;;;;;;;;;;;;;20.01;44.54;97445.28;30001;983;1877;-59
2022/06/18 00:20:53;;;;;;;;;;;;;;;20.01;44.46;97439.78;30001;982;1877;-59
2022/06/18 00:21:25;;;;;;;;;;;;;;;20.01;44.58;97448.03;30001;982;1864;-60
2022/06/18 00:21:56;;;;;;;;;;;;;;;20.02;44.40;97446.09;30001;982;1869;-58
2022/06/18 00:22:28;;;;;;;;;;;;;;;20.01;44.38;97441.72;30001;986;1878;-60
2022/06/18 00:23:00;;;;;;;;;;;;;;;20.02;44.40;97441.38;30001;982;1878;-61
2022/06/18 00:23:31;;;;;;;;;;;;;;;20.04;44.35;97450.13;30001;983;1877;-60
2022/06/18 00:24:06;;;;;;;;;;;;;;;20.04;44.44;97439.09;30001;983;1877;-59
2022/06/18 00:24:37;;;;;;;;;;;;;;;20.04;44.76;97444.59;30001;983;1877;-61
2022/06/18 00:25:26;;;;;;;;;;;;;;;20.04;44.10;97438.28;30001;983;1877;-60
2022/06/18 00:25:58;;;;;;;;;;;;;;;20.10;44.03;97444.41;30001;983;1864;-60
2022/06/18 00:26:28;;;;;;;;;;;;;;;20.09;44.01;97440.84;30001;983;1869;-60
2022/06/18 00:26:59;;;;;;;;;;;;;;;20.11;44.11;97443.22;30001;983;1877;-60
2022/06/18 00:27:30;;;;;;;;;;;;;;;20.10;44.19;97441.63;30001;982;1864;-59
2022/06/18 00:28:03;;;;;;;;;;;;;;;20.06;43.86;97436.81;30001;982;1856;-60
2022/06/18 00:28:34;;;;;;;;;;;;;;;20.07;44.05;97438.41;30001;982;1878;-60
2022/06/18 00:29:05;;;;;;;;;;;;;;;20.05;43.95;97437.94;30001;982;1878;-60
2022/06/18 00:29:36;;;;;;;;;;;;;;;20.04;43.90;97441.06;30001;982;1878;-61
2022/06/18 00:30:09;;;;;;;;;;;;;;;20.00;43.94;97443.69;30001;982;1878;-57
2022/06/18 00:30:41;;;;;;;;;;;;;;;20.01;44.07;97439.78;30001;983;1877;-60
2022/06/18 00:31:12;;;;;;;;;;;;;;;20.02;44.25;97435.88;30001;983;1877;-61
2022/06/18 00:31:44;;;;;;;;;;;;;;;20.03;43.97;97440.25;30001;983;1877;-60
2022/06/18 00:32:15;;;;;;;;;;;;;;;20.05;44.21;97435.19;30001;983;1877;-60
2022/06/18 00:32:47;;;;;;;;;;;;;;;20.04;43.86;97439.09;30001;983;1877;-61
2022/06/18 00:33:19;;;;;;;;;;;;;;;20.13;43.96;97438.19;30001;983;1864;-60
2022/06/18 00:33:49;;;;;;;;;;;;;;;20.15;43.80;97433.13;30001;983;1868;-57
2022/06/18 00:34:22;;;;;;;;;;;;;;;20.13;43.76;97433.47;30001;983;1877;-59
2022/06/18 00:34:54;;;;;;;;;;;;;;;20.13;43.60;97432.66;30001;982;1877;-59
2022/06/18 00:35:25;;;;;;;;;;;;;;;20.14;43.83;97442.53;30001;982;1877;-60
2022/06/18 00:35:59;;;;;;;;;;;;;;;20.12;43.83;97444.81;30001;982;1776;-60
2022/06/18 00:36:30;;;;;;;;;;;;;;;20.12;44.04;97439.31;30001;982;1864;-59
2022/06/18 00:37:03;;;;;;;;;;;;;;;20.12;43.77;97440.13;30001;982;1869;-60
2022/06/18 00:37:33;;;;;;;;;;;;;;;20.11;43.82;97434.94;30001;982;1878;-60
2022/06/18 00:38:06;;;;;;;;;;;;;;;20.11;43.88;97440.47;30001;982;1878;-60
2022/06/18 00:38:39;;;;;;;;;;;;;;;20.06;43.81;97439.56;30001;983;1864;-57
2022/06/18 00:39:12;;;;;;;;;;;;;;;20.05;43.72;97437.94;30001;983;1868;-60
2022/06/18 00:39:43;;;;;;;;;;;;;;;20.05;44.29;97434.41;30001;983;1864;-57
2022/06/18 00:40:19;;;;;;;;;;;;;;;20.05;44.05;97435.19;30001;987;1868;-57
2022/06/18 00:40:50;;;;;;;;;;;;;;;20.03;43.63;97443.00;30001;983;1877;-60
2022/06/18 00:41:23;;;;;;;;;;;;;;;20.05;43.70;97434.41;30001;983;1877;-60
2022/06/18 00:41:54;;;;;;;;;;;;;;;20.05;43.65;97437.94;30001;983;1878;-59
2022/06/18 00:42:26;;;;;;;;;;;;;;;20.03;43.70;97437.50;30001;982;1877;-60
2022/06/18 00:42:59;;;;;;;;;;;;;;;20.01;43.66;97428.75;30001;982;1877;-61
2022/06/18 00:43:56;;;;;;;;;;;;;;;20.00;43.59;97443.69;30001;982;1864;-60
2022/06/18 00:44:38;;;;;;;;;;;;;;;19.99;43.82;97435.75;30001;982;1865;-61
2022/06/18 00:45:11;;;;;;;;;;;;;;;20.00;43.79;97431.84;30001;982;1878;-60
2022/06/18 00:45:42;;;;;;;;;;;;;;;20.01;43.96;97428.75;30001;982;1878;-60
2022/06/18 00:46:48;;;;;;;;;;;;;;;20.02;43.73;97435.06;30001;983;1877;-60
2022/06/18 00:47:43;;;;;;;;;;;;;;;20.01;44.00;97433.47;30001;983;1872;-60
2022/06/18 00:48:23;;;;;;;;;;;;;;;20.06;43.45;97425.00;30001;983;1877;-60
2022/06/18 00:49:26;;;;;;;;;;;;;;;20.08;43.76;97423.50;30001;983;1864;-60
2022/06/18 00:50:29;;;;;;;;;;;;;;;20.08;43.83;97423.50;30001;983;1864;-60
2022/06/18 00:51:08;;;;;;;;;;;;;;;20.10;43.07;97425.13;30001;982;1873;-60
2022/06/18 00:51:52;;;;;;;;;;;;;;;20.08;43.48;97426.25;30001;982;1878;-60
2022/06/18 00:52:26;;;;;;;;;;;;;;;20.08;43.68;97422.69;30001;982;1878;-61
2022/06/18 00:53:02;;;;;;;;;;;;;;;20.08;43.25;97429.00;30001;982;1878;-60
2022/06/18 00:53:45;;;;;;;;;;;;;;;20.08;43.49;97423.50;30001;983;1864;-59
2022/06/18 00:54:33;;;;;;;;;;;;;;;20.10;43.65;97425.13;30001;983;1855;-61
2022/06/18 00:55:29;;;;;;;;;;;;;;;20.08;43.52;97422.69;30001;983;1877;-60
2022/06/18 00:56:04;;;;;;;;;;;;;;;20.04;43.58;97428.09;30001;983;1860;-56
2022/06/18 00:56:49;;;;;;;;;;;;;;;20.05;43.93;97417.87;30001;983;1869;-60
2022/06/18 00:57:35;;;;;;;;;;;;;;;20.09;43.42;97427.06;30001;983;1877;-61
2022/06/18 00:58:14;;;;;;;;;;;;;;;20.08;43.22;97430.97;30001;982;1864;-59
2022/06/18 00:58:54;;;;;;;;;;;;;;;20.07;43.15;97421.88;30001;982;1869;-60
2022/06/18 00:59:43;;;;;;;;;;;;;;;20.04;43.52;97422.56;30001;982;1878;-60
2022/06/18 01:00:23;;;;;;;;;;;;;;;20.05;43.85;97435.19;30001;983;1868;-59
2022/06/18 01:00:55;;;;;;;;;;;;;;;20.05;43.83;97429.69;30001;983;1877;-57
2022/06/18 01:01:30;;;;;;;;;;;;;;;20.05;43.35;97418.66;30001;983;1877;-60
2022/06/18 01:02:02;;;;;;;;;;;;;;;20.07;43.52;97421.88;30001;983;1877;-60
2022/06/18 01:02:38;;;;;;;;;;;;;;;20.07;43.13;97427.41;30001;983;1877;-60
2022/06/18 01:03:43;;;;;;;;;;;;;;;20.07;43.30;97421.09;30001;983;1864;-60
2022/06/18 01:04:25;;;;;;;;;;;;;;;20.04;43.39;97417.06;30001;983;1864;-60
2022/06/18 01:04:56;;;;;;;;;;;;;;;20.07;43.69;97419.13;30001;983;1877;-59
2022/06/18 01:05:33;;;;;;;;;;;;;;;20.08;43.44;97418.00;30001;982;1878;-60
2022/06/18 01:06:25;;;;;;;;;;;;;;;20.12;43.83;97422.78;30001;982;1864;-59
2022/06/18 01:07:02;;;;;;;;;;;;;;;20.08;44.01;97423.50;30001;982;1865;-60
2022/06/18 01:07:36;;;;;;;;;;;;;;;20.05;43.99;97418.66;30001;982;1878;-60
2022/06/18 01:08:17;;;;;;;;;;;;;;;20.05;43.80;97421.44;30001;983;1782;-60
2022/06/18 01:08:53;;;;;;;;;;;;;;;20.04;43.91;97417.06;30001;983;1877;-62
2022/06/18 01:09:24;;;;;;;;;;;;;;;20.06;43.86;97425.78;30001;983;1877;-60
2022/06/18 01:09:55;;;;;;;;;;;;;;;20.06;43.86;97417.53;30001;983;1877;-60
2022/06/18 01:10:31;;;;;;;;;;;;;;;20.08;43.53;97415.25;30001;983;1877;-60
2022/06/18 01:11:05;;;;;;;;;;;;;;;20.08;44.11;97415.25;30001;983;1864;-60
2022/06/18 01:11:38;;;;;;;;;;;;;;;20.08;43.65;97418.00;30001;983;1869;-56
2022/06/18 01:12:10;;;;;;;;;;;;;;;20.08;43.96;97411.69;30001;983;1877;-60
2022/06/18 01:12:41;;;;;;;;;;;;;;;20.05;43.57;97413.16;30001;982;1878;-60
2022/06/18 01:13:14;;;;;;;;;;;;;;;20.02;43.74;97419.34;30001;982;1878;-60
2022/06/18 01:13:45;;;;;;;;;;;;;;;19.99;43.67;97417.28;30001;982;1878;-62
2022/06/18 01:14:18;;;;;;;;;;;;;;;19.98;43.76;97418.41;30001;982;1877;-59
2022/06/18 01:15:01;;;;;;;;;;;;;;;19.98;43.58;97423.94;30001;982;1878;-58
2022/06/18 01:15:32;;;;;;;;;;;;;;;20.00;43.76;97427.16;30001;983;1863;-60
2022/06/18 01:16:05;;;;;;;;;;;;;;;19.98;43.58;97417.63;30001;983;1868;-56
2022/06/18 01:16:36;;;;;;;;;;;;;;;19.97;44.13;97405.78;30001;983;1864;-61
2022/06/18 01:17:07;;;;;;;;;;;;;;;19.96;43.64;97417.97;30001;983;1868;-61
2022/06/18 01:17:40;;;;;;;;;;;;;;;19.97;43.67;97416.81;30001;983;1877;-61
2022/06/18 01:18:13;;;;;;;;;;;;;;;20.01;44.16;97417.75;30001;983;1877;-60
2022/06/18 01:18:45;;;;;;;;;;;;;;;19.99;43.99;97408.22;30001;983;1778;-60
2022/06/18 01:19:24;;;;;;;;;;;;;;;19.98;43.88;97421.19;30001;983;1877;-59
2022/06/18 01:19:55;;;;;;;;;;;;;;;19.94;43.84;97417.50;30001;983;1877;-57
2022/06/18 01:20:25;;;;;;;;;;;;;;;19.91;43.92;97415.41;30001;972;1896;-60
2022/06/18 01:21:18;;;;;;;;;;;;;;;19.89;44.18;97417.69;30001;982;1864;-61
2022/06/18 01:21:59;;;;;;;;;;;;;;;19.92;44.19;97417.03;30001;982;1856;-60
2022/06/18 01:22:58;;;;;;;;;;;;;;;19.92;44.48;97407.97;30001;982;1878;-61
2022/06/18 01:23:42;;;;;;;;;;;;;;;19.90;44.05;97411.06;30001;983;1872;-56
2022/06/18 01:24:16;;;;;;;;;;;;;;;19.92;44.15;97408.75;30001;983;1864;-61
2022/06/18 01:24:49;;;;;;;;;;;;;;;19.93;44.12;97409.56;30001;983;1868;-60
2022/06/18 01:25:20;;;;;;;;;;;;;;;19.93;44.08;97399.34;30001;983;1878;-60
2022/06/18 01:25:55;;;;;;;;;;;;;;;19.98;44.35;97407.41;30001;983;1864;-61
2022/06/18 01:26:27;;;;;;;;;;;;;;;19.98;43.81;97407.41;30001;983;1869;-60
2022/06/18 01:26:59;;;;;;;;;;;;;;;19.97;43.67;97402.25;30001;983;1877;-62
2022/06/18 01:27:30;;;;;;;;;;;;;;;19.98;43.81;97401.91;30001;983;1877;-57
2022/06/18 01:28:01;;;;;;;;;;;;;;;19.96;43.84;97404.19;30001;982;1877;-62
2022/06/18 01:28:32;;;;;;;;;;;;;;;19.96;44.22;97398.69;30001;982;1878;-61
2022/06/18 01:29:03;;;;;;;;;;;;;;;19.95;44.23;97391.56;30001;982;1878;-59
2022/06/18 01:29:35;;;;;;;;;;;;;;;19.95;44.35;97404.53;30001;982;1878;-61
2022/06/18 01:30:08;;;;;;;;;;;;;;;19.96;44.36;97404.19;30001;982;1865;-61
2022/06/18 01:30:39;;;;;;;;;;;;;;;19.97;44.29;97394.78;30001;983;1868;-61
2022/06/18 01:31:10;;;;;;;;;;;;;;;19.97;44.38;97394.78;30001;983;1877;-61
2022/06/18 01:31:42;;;;;;;;;;;;;;;19.95;44.27;97393.50;30001;983;1864;-61
2022/06/18 01:32:15;;;;;;;;;;;;;;;19.95;44.37;97402.56;30001;983;1869;-59
2022/06/18 01:32:46;;;;;;;;;;;;;;;19.93;44.44;97399.34;30001;983;1877;-59
2022/06/18 01:33:18;;;;;;;;;;;;;;;19.94;44.48;97394.66;30001;983;1877;-58
2022/06/18 01:33:49;;;;;;;;;;;;;;;19.94;44.52;97398.22;30001;983;1877;-61
2022/06/18 01:34:20;;;;;;;;;;;;;;;19.94;44.38;97397.41;30001;983;1877;-59
2022/06/18 01:34:52;;;;;;;;;;;;;;;19.93;44.39;97391.09;30001;982;1877;-59
2022/06/18 01:35:24;;;;;;;;;;;;;;;19.94;44.19;97395.47;30001;982;1878;-60
2022/06/18 01:35:55;;;;;;;;;;;;;;;19.90;44.50;97394.53;30001;982;1878;-60
2022/06/18 01:36:27;;;;;;;;;;;;;;;19.89;44.94;97398.44;30001;982;1865;-60
2022/06/18 01:36:59;;;;;;;;;;;;;;;19.87;44.56;97403.47;30001;982;1869;-61
2022/06/18 01:37:31;;;;;;;;;;;;;;;19.88;44.67;97405.06;30001;982;1878;-61
2022/06/18 01:38:02;;;;;;;;;;;;;;;19.88;44.71;97401.53;30001;983;1877;-60
2022/06/18 01:38:34;;;;;;;;;;;;;;;19.86;44.45;97388.09;30001;983;1877;-59
2022/06/18 01:39:18;;;;;;;;;;;;;;;19.86;44.81;97393.59;30001;983;1877;-61
2022/06/18 01:39:50;;;;;;;;;;;;;;;19.80;44.74;97394.97;30001;983;1877;-60
2022/06/18 01:40:33;;;;;;;;;;;;;;;19.79;44.97;97396.09;30001;983;1877;-60
2022/06/18 01:42:25;;;;;;;;;;;;;;;19.75;45.27;97392.44;30001;982;1864;-56
2022/06/18 01:42:58;;;;;;;;;;;;;;;19.72;44.86;97393.13;30001;982;1869;-60
2022/06/18 01:43:30;;;;;;;;;;;;;;;19.71;45.29;97386.00;30001;982;1877;-59
2022/06/18 01:44:18;;;;;;;;;;;;;;;19.71;44.88;97388.75;30001;982;1878;-60
2022/06/18 01:44:56;;;;;;;;;;;;;;;19.75;45.18;97392.44;30001;982;1873;-60
2022/06/18 01:45:29;;;;;;;;;;;;;;;19.73;44.92;97389.22;30001;983;1877;-60
2022/06/18 01:46:01;;;;;;;;;;;;;;;19.74;45.18;97388.09;30001;983;1877;-59
2022/06/18 01:46:33;;;;;;;;;;;;;;;19.76;45.33;97394.03;30001;983;1864;-60
2022/06/18 01:47:08;;;;;;;;;;;;;;;19.77;45.38;97389.31;30001;983;1868;-56
2022/06/18 01:47:51;;;;;;;;;;;;;;;19.75;45.33;97393.22;30001;983;1877;-58
2022/06/18 01:48:30;;;;;;;;;;;;;;;19.73;45.62;97383.72;30001;983;1877;-60
2022/06/18 01:49:04;;;;;;;;;;;;;;;19.72;45.47;97387.63;30001;983;1877;-60
2022/06/18 01:49:38;;;;;;;;;;;;;;;19.70;45.57;97385.19;30001;982;1877;-61
2022/06/18 01:50:28;;;;;;;;;;;;;;;19.70;45.78;97381.66;30001;982;1864;-56
2022/06/18 01:51:02;;;;;;;;;;;;;;;19.67;46.10;97385.06;30001;982;1869;-61
2022/06/18 01:51:35;;;;;;;;;;;;;;;19.68;45.90;97378.41;30001;982;1877;-57
2022/06/18 01:52:08;;;;;;;;;;;;;;;19.66;46.01;97380.72;30001;982;1878;-61
2022/06/18 01:52:42;;;;;;;;;;;;;;;19.65;46.25;97381.84;30001;982;1878;-61
2022/06/18 01:53:23;;;;;;;;;;;;;;;19.64;46.39;97383.81;30001;983;1877;-55
2022/06/18 01:53:58;;;;;;;;;;;;;;;19.65;46.33;97387.34;30001;983;1877;-61
2022/06/18 01:54:32;;;;;;;;;;;;;;;19.64;46.55;97381.03;30001;983;1877;-62
2022/06/18 01:55:07;;;;;;;;;;;;;;;19.62;46.41;97377.81;30001;983;1864;-61
2022/06/18 01:55:42;;;;;;;;;;;;;;;19.61;46.70;97380.91;30001;983;1869;-60
2022/06/18 01:56:22;;;;;;;;;;;;;;;19.61;46.50;97376.22;30001;983;1864;-60
2022/06/18 01:57:02;;;;;;;;;;;;;;;19.58;46.54;97376.09;30001;983;1869;-61
2022/06/18 01:57:35;;;;;;;;;;;;;;;19.52;46.67;97383.75;30001;982;1877;-60
2022/06/18 01:58:10;;;;;;;;;;;;;;;19.53;46.74;97379.06;30001;982;1878;-61
2022/06/18 01:58:44;;;;;;;;;;;;;;;19.51;46.77;97375.84;30001;982;1878;-61
2022/06/18 01:59:26;;;;;;;;;;;;;;;19.50;46.59;97379.69;30001;982;1878;-60
2022/06/18 02:00:04;;;;;;;;;;;;;;;19.51;46.63;97373.09;30001;982;1878;-61
2022/06/18 02:00:35;;;;;;;;;;;;;;;19.51;46.84;97375.84;30001;983;1877;-60
2022/06/18 02:01:08;;;;;;;;;;;;;;;19.51;46.68;97373.88;30001;983;1877;-60
2022/06/18 02:01:41;;;;;;;;;;;;;;;19.47;46.96;97374.88;30001;983;1864;-61
2022/06/18 02:02:12;;;;;;;;;;;;;;;19.43;46.90;97374.72;30001;983;1868;-60
2022/06/18 02:02:45;;;;;;;;;;;;;;;19.41;47.20;97375.06;30001;983;1877;-60
2022/06/18 02:03:17;;;;;;;;;;;;;;;19.40;47.18;97376.22;30001;983;1864;-60
2022/06/18 02:03:48;;;;;;;;;;;;;;;19.39;47.47;97382.88;30001;983;1869;-61
2022/06/18 02:04:20;;;;;;;;;;;;;;;19.38;47.23;97378.53;30001;983;1864;-60
2022/06/18 02:04:51;;;;;;;;;;;;;;;19.38;47.22;97378.53;30001;982;1869;-61
2022/06/18 02:05:22;;;;;;;;;;;;;;;19.34;47.25;97372.09;30001;982;1864;-57
2022/06/18 02:05:54;;;;;;;;;;;;;;;19.37;47.23;97376.12;30001;982;1856;-60
2022/06/18 02:06:25;;;;;;;;;;;;;;;19.34;47.29;97363.84;30001;982;1878;-60
2022/06/18 02:06:56;;;;;;;;;;;;;;;19.34;47.29;97366.59;30001;982;1878;-57
2022/06/18 02:07:30;;;;;;;;;;;;;;;19.34;47.36;97363.03;30001;983;1877;-61
2022/06/18 02:08:01;;;;;;;;;;;;;;;19.36;47.41;97369.81;30001;983;1877;-59
2022/06/18 02:08:33;;;;;;;;;;;;;;;19.33;47.18;97366.91;30001;983;1877;-61
2022/06/18 02:09:08;;;;;;;;;;;;;;;19.30;47.41;97371.16;30001;983;1877;-60
2022/06/18 02:09:44;;;;;;;;;;;;;;;19.25;47.47;97365.84;30001;983;1877;-60
2022/06/18 02:10:37;;;;;;;;;;;;;;;19.21;47.56;97367.66;30001;983;1877;-60
2022/06/18 02:11:11;;;;;;;;;;;;;;;19.19;47.72;97367.19;30001;983;1859;-57
2022/06/18 02:11:42;;;;;;;;;;;;;;;19.19;47.87;97369.13;30001;983;1868;-61
2022/06/18 02:12:23;;;;;;;;;;;;;;;19.17;47.63;97368.66;30001;982;1878;-59
2022/06/18 02:12:56;;;;;;;;;;;;;;;19.18;47.92;97375.78;30001;982;1878;-60
2022/06/18 02:13:31;;;;;;;;;;;;;;;19.17;47.95;97369.47;30001;982;1878;-60
2022/06/18 02:14:05;;;;;;;;;;;;;;;19.15;48.09;97369.00;30001;982;1878;-60
2022/06/18 02:14:38;;;;;;;;;;;;;;;19.16;48.30;97364.31;30001;982;1878;-61
2022/06/18 02:15:12;;;;;;;;;;;;;;;19.13;47.61;97360.28;30001;983;1863;-62
2022/06/18 02:15:46;;;;;;;;;;;;;;;19.12;47.58;97369.69;30001;983;1868;-61
2022/06/18 02:16:20;;;;;;;;;;;;;;;19.12;48.19;97364.19;30001;983;1877;-60
2022/06/18 02:16:52;;;;;;;;;;;;;;;19.12;48.03;97363.37;30001;983;1877;-61
2022/06/18 02:17:28;;;;;;;;;;;;;;;19.11;48.16;97356.25;30001;983;1877;-60
2022/06/18 02:18:02;;;;;;;;;;;;;;;19.12;48.16;97361.44;30001;983;1864;-56
2022/06/18 02:18:34;;;;;;;;;;;;;;;19.11;48.37;97362.56;30001;983;1869;-56
2022/06/18 02:19:06;;;;;;;;;;;;;;;19.08;48.15;97364.03;30001;983;1877;-60
2022/06/18 02:19:38;;;;;;;;;;;;;;;19.09;48.35;97367.59;30001;983;1864;-57
2022/06/18 02:20:18;;;;;;;;;;;;;;;19.07;48.17;97367.12;30001;982;1869;-61
2022/06/18 02:20:51;;;;;;;;;;;;;;;19.07;48.40;97359.69;30001;982;1878;-60
2022/06/18 02:21:23;;;;;;;;;;;;;;;19.09;48.30;97364.84;30001;982;1877;-57
2022/06/18 02:21:55;;;;;;;;;;;;;;;19.07;48.38;97362.44;30001;982;1878;-61
2022/06/18 02:22:30;;;;;;;;;;;;;;;19.05;48.08;97362.00;30001;982;1878;-60
2022/06/18 02:23:01;;;;;;;;;;;;;;;19.04;48.34;97359.56;30001;983;1877;-60
2022/06/18 02:23:33;;;;;;;;;;;;;;;19.02;48.34;97356.34;30001;983;1864;-60
2022/06/18 02:24:05;;;;;;;;;;;;;;;19.01;48.38;97360.25;30001;983;1868;-61
2022/06/18 02:24:36;;;;;;;;;;;;;;;19.01;48.39;97365.75;30001;983;1877;-57
2022/06/18 02:25:07;;;;;;;;;;;;;;;19.00;48.77;97356.69;30001;983;1864;-60
2022/06/18 02:25:38;;;;;;;;;;;;;;;19.02;48.69;97356.34;30001;983;1868;-60
2022/06/18 02:26:11;;;;;;;;;;;;;;;19.03;48.88;97358.78;30001;983;1877;-59
2022/06/18 02:26:43;;;;;;;;;;;;;;;19.06;48.50;97354.50;30001;983;1877;-61
2022/06/18 02:27:16;;;;;;;;;;;;;;;19.05;48.72;97355.69;30001;983;1877;-61
2022/06/18 02:27:48;;;;;;;;;;;;;;;19.03;48.59;97355.22;30001;982;1878;-61
2022/06/18 02:28:23;;;;;;;;;;;;;;;19.01;48.64;97352.00;30001;982;1878;-60
2022/06/18 02:28:55;;;;;;;;;;;;;;;18.99;48.56;97354.28;30001;982;1878;-60
2022/06/18 02:29:28;;;;;;;;;;;;;;;19.00;48.45;97351.19;30001;982;1865;-61
2022/06/18 02:29:59;;;;;;;;;;;;;;;18.98;49.02;97347.16;30001;983;1868;-61
2022/06/18 02:30:31;;;;;;;;;;;;;;;18.97;48.76;97351.84;30001;983;1877;-59
2022/06/18 02:31:04;;;;;;;;;;;;;;;19.02;48.60;97354.41;30001;983;1877;-57
2022/06/18 02:31:35;;;;;;;;;;;;;;;19.03;48.58;97344.22;30001;983;1877;-60
2022/06/18 02:32:14;;;;;;;;;;;;;;;19.03;48.67;97349.72;30001;983;1864;-61
2022/06/18 02:33:19;;;;;;;;;;;;;;;19.06;48.85;97354.50;30001;983;1868;-60
2022/06/18 02:33:56;;;;;;;;;;;;;;;19.10;48.49;97347.19;30001;983;1873;-61
2022/06/18 02:34:29;;;;;;;;;;;;;;;19.05;48.29;97344.69;30001;982;1877;-60
2022/06/18 02:35:00;;;;;;;;;;;;;;;19.02;48.08;97343.41;30001;982;1878;-60
2022/06/18 02:35:32;;;;;;;;;;;;;;;19.00;48.76;97344.88;30001;982;1878;-61
2022/06/18 02:36:17;;;;;;;;;;;;;;;19.00;48.88;97348.44;30001;982;1878;-60
2022/06/18 02:36:48;;;;;;;;;;;;;;;19.00;48.79;97351.19;30001;982;1878;-60
2022/06/18 02:37:22;;;;;;;;;;;;;;;18.98;48.75;97344.41;30001;982;1865;-60
2022/06/18 02:37:54;;;;;;;;;;;;;;;18.97;48.61;97349.09;30001;983;1868;-60
2022/06/18 02:38:26;;;;;;;;;;;;;;;18.96;48.58;97344.75;30001;983;1877;-59
2022/06/18 02:39:18;;;;;;;;;;;;;;;18.98;48.55;97336.97;30001;986;1873;-60
2022/06/18 02:39:54;;;;;;;;;;;;;;;19.02;48.29;97339.84;30001;983;1877;-60
2022/06/18 02:40:26;;;;;;;;;;;;;;;19.06;48.56;97343.50;30001;983;1877;-60
2022/06/18 02:40:57;;;;;;;;;;;;;;;19.09;48.37;97348.34;30001;983;1877;-61
2022/06/18 02:41:29;;;;;;;;;;;;;;;19.10;48.64;97344.44;30001;983;1877;-60
2022/06/18 02:42:11;;;;;;;;;;;;;;;19.07;48.34;97345.12;30001;982;1877;-61
2022/06/18 02:42:42;;;;;;;;;;;;;;;19.06;48.77;97346.25;30001;982;1864;-60
2022/06/18 02:43:15;;;;;;;;;;;;;;;19.02;48.58;97343.41;30001;982;1869;-59
2022/06/18 02:43:46;;;;;;;;;;;;;;;19.01;48.66;97346.50;30001;982;1878;-60
2022/06/18 02:44:18;;;;;;;;;;;;;;;19.01;48.96;97346.50;30001;982;1878;-56
2022/06/18 02:44:51;;;;;;;;;;;;;;;18.98;48.61;97347.16;30001;982;1878;-56
2022/06/18 02:45:23;;;;;;;;;;;;;;;19.01;48.53;97349.25;30001;983;1877;-61
2022/06/18 02:45:56;;;;;;;;;;;;;;;19.03;48.57;97349.72;30001;983;1864;-60
2022/06/18 02:46:30;;;;;;;;;;;;;;;19.07;48.61;97345.94;30001;983;1868;-60
2022/06/18 02:47:06;;;;;;;;;;;;;;;19.09;48.41;97342.84;30002;799;1013;-61
2022/06/18 02:47:39;;;;;;;;;;;;;;;19.09;48.22;97348.34;30001;983;1776;-62
2022/06/18 02:48:11;;;;;;;;;;;;;;;19.07;48.27;97345.12;30001;983;1864;-60
2022/06/18 02:48:42;;;;;;;;;;;;;;;19.07;48.46;97345.12;30001;983;1869;-57
2022/06/18 02:49:13;;;;;;;;;;;;;;;19.06;48.43;97344.31;30001;982;1877;-60
2022/06/18 02:49:56;;;;;;;;;;;;;;;19.07;48.43;97339.63;30001;982;1877;-60
2022/06/18 02:50:33;;;;;;;;;;;;;;;19.10;48.56;97349.97;30001;982;1878;-60
2022/06/18 02:51:05;;;;;;;;;;;;;;;19.12;48.39;97339.41;30001;982;1864;-55
2022/06/18 02:51:36;;;;;;;;;;;;;;;19.14;48.43;97345.38;30001;982;1856;-59
2022/06/18 02:52:07;;;;;;;;;;;;;;;19.13;48.14;97346.53;30001;982;1878;-62
2022/06/18 02:52:44;;;;;;;;;;;;;;;19.09;48.46;97348.34;30001;983;1877;-59
2022/06/18 02:53:15;;;;;;;;;;;;;;;19.03;48.42;97338.72;30001;983;1877;-60
2022/06/18 02:53:47;;;;;;;;;;;;;;;19.06;48.27;97343.50;30001;983;1877;-61
2022/06/18 02:54:19;;;;;;;;;;;;;;;19.02;48.34;97343.41;30001;983;1877;-59
2022/06/18 02:54:50;;;;;;;;;;;;;;;19.05;48.33;97344.69;30001;983;1877;-60
2022/06/18 02:55:26;;;;;;;;;;;;;;;19.05;48.07;97348.25;30001;983;1877;-60
2022/06/18 02:56:04;;;;;;;;;;;;;;;19.05;48.31;97345.50;30001;983;1877;-62
2022/06/18 02:56:34;;;;;;;;;;;;;;;19.05;47.98;97352.94;30001;983;1878;-56
2022/06/18 02:57:15;;;;;;;;;;;;;;;19.02;48.42;97348.09;30001;982;1864;-57
2022/06/18 02:57:48;;;;;;;;;;;;;;;19.01;48.31;97346.50;30001;982;1869;-58
2022/06/18 02:58:22;;;;;;;;;;;;;;;19.01;48.35;97343.75;30001;982;1878;-59
2022/06/18 02:58:53;;;;;;;;;;;;;;;19.01;48.10;97346.50;30001;982;1878;-57
2022/06/18 02:59:25;;;;;;;;;;;;;;;19.03;48.39;97341.47;30001;982;1878;-57
2022/06/18 02:59:56;;;;;;;;;;;;;;;19.02;48.33;97345.34;30001;982;1878;-61
2022/06/18 03:00:27;;;;;;;;;;;;;;;19.02;48.25;97348.09;30001;986;1864;-60
2022/06/18 03:01:00;;;;;;;;;;;;;;;19.05;48.43;97347.44;30001;983;1868;-60
2022/06/18 03:01:32;;;;;;;;;;;;;;;19.06;48.25;97349.00;30001;983;1864;-59
2022/06/18 03:02:03;;;;;;;;;;;;;;;19.07;48.22;97351.44;30001;983;1761;-59
2022/06/18 03:02:34;;;;;;;;;;;;;;;19.03;48.54;97341.47;30001;983;1877;-60
2022/06/18 03:03:06;;;;;;;;;;;;;;;19.02;48.37;97343.41;30001;983;1877;-58
2022/06/18 03:03:44;;;;;;;;;;;;;;;19.03;48.74;97345.03;30001;983;1864;-60
2022/06/18 03:04:14;;;;;;;;;;;;;;;19.03;48.21;97345.03;30001;982;1869;-60
2022/06/18 03:04:45;;;;;;;;;;;;;;;19.02;48.65;97348.91;30001;982;1878;-56
2022/06/18 03:05:27;;;;;;;;;;;;;;;19.05;48.32;97344.69;30001;982;1878;-60
2022/06/18 03:05:59;;;;;;;;;;;;;;;19.05;48.15;97352.94;30001;982;1878;-60
2022/06/18 03:06:31;;;;;;;;;;;;;;;19.03;48.37;97345.03;30001;982;1877;-60
2022/06/18 03:07:03;;;;;;;;;;;;;;;19.03;48.42;97355.22;30001;983;1877;-60
2022/06/18 03:07:33;;;;;;;;;;;;;;;19.00;48.31;97340.19;30001;983;1877;-61
2022/06/18 03:08:05;;;;;;;;;;;;;;;18.98;48.48;97341.66;30001;983;1797;-60
2022/06/18 03:08:36;;;;;;;;;;;;;;;18.97;48.56;97351.84;30001;983;1877;-60
2022/06/18 03:09:10;;;;;;;;;;;;;;;18.95;48.86;97350.59;30001;983;1864;-60